sensor_id;sensor_type;location;lat;lon;timestamp;P1;durP1;ratioP1;P2;durP2;ratioP2
22026;SDS011;11177;50.966;10.070;2023-07-30T00:00:42;4.10;;;3.10;;
22026;SDS011;11177;50.966;10.070;2023-07-30T00:03:09;5.75;;;2.90;;
22026;SDS011;11177;50.966;10.070;2023-07-30T00:05:36;4.25;;;2.85;;
22026;SDS011;11177;50.966;10.070;2023-07-30T00:08:03;6.20;;;3.05;;
22026;SDS011;11177;50.966;10.070;2023-07-30T00:10:30;4.97;;;3.15;;
22026;SDS011;11177;50.966;10.070;2023-07-30T00:12:57;9.32;;;3.30;;
22026;SDS011;11177;50.966;10.070;2023-07-30T00:15:23;3.22;;;2.90;;
22026;SDS011;11177;50.966;10.070;2023-07-30T00:17:50;3.83;;;3.13;;
22026;SDS011;11177;50.966;10.070;2023-07-30T00:20:17;5.00;;;3.15;;
22026;SDS011;11177;50.966;10.070;2023-07-30T00:22:44;4.93;;;3.38;;
22026;SDS011;11177;50.966;10.070;2023-07-30T00:25:11;4.13;;;3.17;;
22026;SDS011;11177;50.966;10.070;2023-07-30T00:27:38;6.78;;;3.45;;
22026;SDS011;11177;50.966;10.070;2023-07-30T00:30:05;3.72;;;3.05;;
22026;SDS011;11177;50.966;10.070;2023-07-30T00:32:32;7.18;;;3.28;;
22026;SDS011;11177;50.966;10.070;2023-07-30T00:34:59;3.63;;;3.05;;
22026;SDS011;11177;50.966;10.070;2023-07-30T00:37:25;4.03;;;3.13;;
22026;SDS011;11177;50.966;10.070;2023-07-30T00:39:52;6.60;;;3.20;;
22026;SDS011;11177;50.966;10.070;2023-07-30T00:42:19;6.18;;;3.10;;
22026;SDS011;11177;50.966;10.070;2023-07-30T00:44:46;7.47;;;3.03;;
22026;SDS011;11177;50.966;10.070;2023-07-30T00:47:12;3.47;;;3.03;;
22026;SDS011;11177;50.966;10.070;2023-07-30T00:49:39;4.18;;;2.95;;
22026;SDS011;11177;50.966;10.070;2023-07-30T00:52:06;8.52;;;3.10;;
22026;SDS011;11177;50.966;10.070;2023-07-30T00:54:34;4.88;;;2.92;;
22026;SDS011;11177;50.966;10.070;2023-07-30T00:57:01;7.60;;;3.22;;
22026;SDS011;11177;50.966;10.070;2023-07-30T00:59:28;4.60;;;3.10;;
22026;SDS011;11177;50.966;10.070;2023-07-30T01:01:55;3.47;;;3.10;;
22026;SDS011;11177;50.966;10.070;2023-07-30T01:04:25;3.40;;;2.90;;
22026;SDS011;11177;50.966;10.070;2023-07-30T01:06:52;4.38;;;2.90;;
22026;SDS011;11177;50.966;10.070;2023-07-30T01:09:19;3.10;;;2.83;;
22026;SDS011;11177;50.966;10.070;2023-07-30T01:11:46;2.97;;;2.60;;
22026;SDS011;11177;50.966;10.070;2023-07-30T01:14:13;6.47;;;3.08;;
22026;SDS011;11177;50.966;10.070;2023-07-30T01:16:41;5.07;;;2.80;;
22026;SDS011;11177;50.966;10.070;2023-07-30T01:19:08;4.82;;;3.10;;
22026;SDS011;11177;50.966;10.070;2023-07-30T01:21:35;5.25;;;3.08;;
22026;SDS011;11177;50.966;10.070;2023-07-30T01:24:03;7.05;;;3.15;;
22026;SDS011;11177;50.966;10.070;2023-07-30T01:26:32;4.03;;;2.75;;
22026;SDS011;11177;50.966;10.070;2023-07-30T01:29:03;5.57;;;3.10;;
22026;SDS011;11177;50.966;10.070;2023-07-30T01:31:35;4.50;;;3.03;;
22026;SDS011;11177;50.966;10.070;2023-07-30T01:34:03;3.83;;;2.83;;
22026;SDS011;11177;50.966;10.070;2023-07-30T01:36:30;4.20;;;2.65;;
22026;SDS011;11177;50.966;10.070;2023-07-30T01:38:58;9.13;;;3.28;;
22026;SDS011;11177;50.966;10.070;2023-07-30T01:41:26;3.72;;;2.97;;
22026;SDS011;11177;50.966;10.070;2023-07-30T01:43:53;5.35;;;3.03;;
22026;SDS011;11177;50.966;10.070;2023-07-30T01:46:20;4.30;;;3.25;;
22026;SDS011;11177;50.966;10.070;2023-07-30T01:48:47;8.60;;;3.00;;
22026;SDS011;11177;50.966;10.070;2023-07-30T01:51:14;6.03;;;3.40;;
22026;SDS011;11177;50.966;10.070;2023-07-30T01:53:41;3.75;;;2.97;;
22026;SDS011;11177;50.966;10.070;2023-07-30T01:56:08;5.25;;;3.30;;
22026;SDS011;11177;50.966;10.070;2023-07-30T01:58:35;6.57;;;3.42;;
22026;SDS011;11177;50.966;10.070;2023-07-30T02:01:02;6.25;;;3.28;;
22026;SDS011;11177;50.966;10.070;2023-07-30T02:03:29;4.60;;;3.33;;
22026;SDS011;11177;50.966;10.070;2023-07-30T02:05:56;5.78;;;3.08;;
22026;SDS011;11177;50.966;10.070;2023-07-30T02:08:23;7.20;;;3.38;;
22026;SDS011;11177;50.966;10.070;2023-07-30T02:10:58;7.90;;;3.60;;
22026;SDS011;11177;50.966;10.070;2023-07-30T02:13:25;5.70;;;3.03;;
22026;SDS011;11177;50.966;10.070;2023-07-30T02:15:52;8.45;;;3.35;;
22026;SDS011;11177;50.966;10.070;2023-07-30T02:18:19;6.40;;;3.20;;
22026;SDS011;11177;50.966;10.070;2023-07-30T02:20:46;3.40;;;3.08;;
22026;SDS011;11177;50.966;10.070;2023-07-30T02:23:14;4.88;;;3.47;;
22026;SDS011;11177;50.966;10.070;2023-07-30T02:25:42;7.47;;;3.38;;
22026;SDS011;11177;50.966;10.070;2023-07-30T02:28:09;4.60;;;2.90;;
22026;SDS011;11177;50.966;10.070;2023-07-30T02:30:39;6.43;;;3.30;;
22026;SDS011;11177;50.966;10.070;2023-07-30T02:33:06;7.70;;;4.00;;
22026;SDS011;11177;50.966;10.070;2023-07-30T02:35:33;4.68;;;3.40;;
22026;SDS011;11177;50.966;10.070;2023-07-30T02:38:00;7.70;;;3.35;;
22026;SDS011;11177;50.966;10.070;2023-07-30T02:40:27;8.40;;;3.58;;
22026;SDS011;11177;50.966;10.070;2023-07-30T02:42:54;8.18;;;3.33;;
22026;SDS011;11177;50.966;10.070;2023-07-30T02:45:20;5.53;;;3.05;;
22026;SDS011;11177;50.966;10.070;2023-07-30T02:47:47;6.35;;;3.08;;
22026;SDS011;11177;50.966;10.070;2023-07-30T02:50:15;5.00;;;3.08;;
22026;SDS011;11177;50.966;10.070;2023-07-30T02:52:45;10.63;;;3.60;;
22026;SDS011;11177;50.966;10.070;2023-07-30T02:55:12;3.85;;;2.85;;
22026;SDS011;11177;50.966;10.070;2023-07-30T02:57:39;7.15;;;3.88;;
22026;SDS011;11177;50.966;10.070;2023-07-30T03:00:06;8.35;;;3.25;;
22026;SDS011;11177;50.966;10.070;2023-07-30T03:02:35;7.50;;;2.83;;
22026;SDS011;11177;50.966;10.070;2023-07-30T03:05:02;9.00;;;3.38;;
22026;SDS011;11177;50.966;10.070;2023-07-30T03:07:29;7.95;;;3.67;;
22026;SDS011;11177;50.966;10.070;2023-07-30T03:09:56;4.00;;;3.33;;
22026;SDS011;11177;50.966;10.070;2023-07-30T03:12:22;5.43;;;3.20;;
22026;SDS011;11177;50.966;10.070;2023-07-30T03:14:50;6.25;;;3.20;;
22026;SDS011;11177;50.966;10.070;2023-07-30T03:17:17;6.70;;;3.78;;
22026;SDS011;11177;50.966;10.070;2023-07-30T03:19:43;6.32;;;3.95;;
22026;SDS011;11177;50.966;10.070;2023-07-30T03:22:10;6.13;;;3.72;;
22026;SDS011;11177;50.966;10.070;2023-07-30T03:24:37;6.38;;;4.35;;
22026;SDS011;11177;50.966;10.070;2023-07-30T03:27:04;8.15;;;4.43;;
22026;SDS011;11177;50.966;10.070;2023-07-30T03:29:31;4.43;;;3.72;;
22026;SDS011;11177;50.966;10.070;2023-07-30T03:31:59;6.30;;;4.35;;
22026;SDS011;11177;50.966;10.070;2023-07-30T03:34:25;8.05;;;4.18;;
22026;SDS011;11177;50.966;10.070;2023-07-30T03:36:52;4.30;;;3.90;;
22026;SDS011;11177;50.966;10.070;2023-07-30T03:39:19;9.20;;;4.18;;
22026;SDS011;11177;50.966;10.070;2023-07-30T03:41:46;7.93;;;4.50;;
22026;SDS011;11177;50.966;10.070;2023-07-30T03:44:13;7.00;;;4.07;;
22026;SDS011;11177;50.966;10.070;2023-07-30T03:46:40;7.30;;;4.80;;
22026;SDS011;11177;50.966;10.070;2023-07-30T03:49:07;5.57;;;4.20;;
22026;SDS011;11177;50.966;10.070;2023-07-30T03:51:34;7.78;;;4.05;;
22026;SDS011;11177;50.966;10.070;2023-07-30T03:54:01;6.47;;;3.85;;
22026;SDS011;11177;50.966;10.070;2023-07-30T03:56:28;5.55;;;4.10;;
22026;SDS011;11177;50.966;10.070;2023-07-30T03:58:55;5.50;;;3.80;;
22026;SDS011;11177;50.966;10.070;2023-07-30T04:01:22;5.63;;;3.85;;
22026;SDS011;11177;50.966;10.070;2023-07-30T04:03:49;4.57;;;3.97;;
22026;SDS011;11177;50.966;10.070;2023-07-30T04:06:16;5.03;;;3.90;;
22026;SDS011;11177;50.966;10.070;2023-07-30T04:08:43;7.65;;;4.07;;
22026;SDS011;11177;50.966;10.070;2023-07-30T04:11:10;7.93;;;3.95;;
22026;SDS011;11177;50.966;10.070;2023-07-30T04:13:37;5.65;;;4.25;;
22026;SDS011;11177;50.966;10.070;2023-07-30T04:16:04;4.40;;;3.90;;
22026;SDS011;11177;50.966;10.070;2023-07-30T04:18:31;4.22;;;3.88;;
22026;SDS011;11177;50.966;10.070;2023-07-30T04:20:58;4.72;;;4.22;;
22026;SDS011;11177;50.966;10.070;2023-07-30T04:23:25;4.88;;;3.88;;
22026;SDS011;11177;50.966;10.070;2023-07-30T04:25:52;7.97;;;4.13;;
22026;SDS011;11177;50.966;10.070;2023-07-30T04:28:19;6.63;;;4.30;;
22026;SDS011;11177;50.966;10.070;2023-07-30T04:30:46;7.60;;;3.97;;
22026;SDS011;11177;50.966;10.070;2023-07-30T04:33:14;5.10;;;4.25;;
22026;SDS011;11177;50.966;10.070;2023-07-30T04:35:41;6.32;;;4.40;;
22026;SDS011;11177;50.966;10.070;2023-07-30T04:38:08;6.20;;;4.55;;
22026;SDS011;11177;50.966;10.070;2023-07-30T04:40:35;5.30;;;4.20;;
22026;SDS011;11177;50.966;10.070;2023-07-30T04:43:02;5.90;;;4.18;;
22026;SDS011;11177;50.966;10.070;2023-07-30T04:45:29;6.50;;;3.92;;
22026;SDS011;11177;50.966;10.070;2023-07-30T04:47:56;4.75;;;4.22;;
22026;SDS011;11177;50.966;10.070;2023-07-30T04:50:23;4.68;;;4.13;;
22026;SDS011;11177;50.966;10.070;2023-07-30T04:52:50;5.72;;;4.43;;
22026;SDS011;11177;50.966;10.070;2023-07-30T04:55:17;4.55;;;4.15;;
22026;SDS011;11177;50.966;10.070;2023-07-30T04:57:44;5.90;;;3.95;;
22026;SDS011;11177;50.966;10.070;2023-07-30T05:00:12;5.80;;;4.00;;
22026;SDS011;11177;50.966;10.070;2023-07-30T05:02:39;4.30;;;3.90;;
22026;SDS011;11177;50.966;10.070;2023-07-30T05:05:06;5.15;;;3.92;;
22026;SDS011;11177;50.966;10.070;2023-07-30T05:07:33;6.88;;;4.00;;
22026;SDS011;11177;50.966;10.070;2023-07-30T05:10:00;4.28;;;3.88;;
22026;SDS011;11177;50.966;10.070;2023-07-30T05:12:27;5.53;;;3.58;;
22026;SDS011;11177;50.966;10.070;2023-07-30T05:14:54;5.30;;;3.50;;
22026;SDS011;11177;50.966;10.070;2023-07-30T05:17:21;4.57;;;3.28;;
22026;SDS011;11177;50.966;10.070;2023-07-30T05:19:48;5.57;;;3.30;;
22026;SDS011;11177;50.966;10.070;2023-07-30T05:22:15;4.00;;;3.65;;
22026;SDS011;11177;50.966;10.070;2023-07-30T05:24:42;5.80;;;3.58;;
22026;SDS011;11177;50.966;10.070;2023-07-30T05:27:09;3.70;;;3.40;;
22026;SDS011;11177;50.966;10.070;2023-07-30T05:29:36;4.43;;;3.40;;
22026;SDS011;11177;50.966;10.070;2023-07-30T05:32:03;4.15;;;3.35;;
22026;SDS011;11177;50.966;10.070;2023-07-30T05:34:30;4.43;;;3.20;;
22026;SDS011;11177;50.966;10.070;2023-07-30T05:36:57;4.57;;;3.40;;
22026;SDS011;11177;50.966;10.070;2023-07-30T05:39:24;7.00;;;3.35;;
22026;SDS011;11177;50.966;10.070;2023-07-30T05:41:51;5.40;;;3.00;;
22026;SDS011;11177;50.966;10.070;2023-07-30T05:44:18;3.83;;;3.15;;
22026;SDS011;11177;50.966;10.070;2023-07-30T05:46:45;4.28;;;3.20;;
22026;SDS011;11177;50.966;10.070;2023-07-30T05:49:12;3.45;;;2.80;;
22026;SDS011;11177;50.966;10.070;2023-07-30T05:51:39;4.63;;;3.08;;
22026;SDS011;11177;50.966;10.070;2023-07-30T05:54:06;5.30;;;3.20;;
22026;SDS011;11177;50.966;10.070;2023-07-30T05:56:33;4.57;;;3.20;;
22026;SDS011;11177;50.966;10.070;2023-07-30T05:59:00;7.15;;;3.00;;
22026;SDS011;11177;50.966;10.070;2023-07-30T06:01:27;4.20;;;2.92;;
22026;SDS011;11177;50.966;10.070;2023-07-30T06:03:54;5.65;;;3.15;;
22026;SDS011;11177;50.966;10.070;2023-07-30T06:06:21;4.13;;;2.90;;
22026;SDS011;11177;50.966;10.070;2023-07-30T06:08:54;5.53;;;3.38;;
22026;SDS011;11177;50.966;10.070;2023-07-30T06:11:21;4.45;;;3.58;;
22026;SDS011;11177;50.966;10.070;2023-07-30T06:13:48;4.65;;;4.00;;
22026;SDS011;11177;50.966;10.070;2023-07-30T06:16:16;6.68;;;4.40;;
22026;SDS011;11177;50.966;10.070;2023-07-30T06:18:43;6.10;;;4.32;;
22026;SDS011;11177;50.966;10.070;2023-07-30T06:21:10;5.55;;;4.53;;
22026;SDS011;11177;50.966;10.070;2023-07-30T06:23:37;5.25;;;3.97;;
22026;SDS011;11177;50.966;10.070;2023-07-30T06:26:05;5.47;;;4.18;;
22026;SDS011;11177;50.966;10.070;2023-07-30T06:28:31;5.55;;;3.97;;
22026;SDS011;11177;50.966;10.070;2023-07-30T06:31:02;4.65;;;4.03;;
22026;SDS011;11177;50.966;10.070;2023-07-30T06:33:29;6.60;;;3.70;;
22026;SDS011;11177;50.966;10.070;2023-07-30T06:35:58;4.13;;;3.63;;
22026;SDS011;11177;50.966;10.070;2023-07-30T06:38:25;3.70;;;3.30;;
22026;SDS011;11177;50.966;10.070;2023-07-30T06:40:52;4.72;;;3.55;;
22026;SDS011;11177;50.966;10.070;2023-07-30T06:43:19;4.32;;;2.83;;
22026;SDS011;11177;50.966;10.070;2023-07-30T06:45:46;4.38;;;2.88;;
22026;SDS011;11177;50.966;10.070;2023-07-30T06:48:13;3.08;;;2.58;;
22026;SDS011;11177;50.966;10.070;2023-07-30T06:50:41;6.43;;;2.85;;
22026;SDS011;11177;50.966;10.070;2023-07-30T06:53:08;3.67;;;2.30;;
22026;SDS011;11177;50.966;10.070;2023-07-30T06:55:35;3.80;;;2.30;;
22026;SDS011;11177;50.966;10.070;2023-07-30T06:58:02;4.75;;;2.67;;
22026;SDS011;11177;50.966;10.070;2023-07-30T07:00:29;4.32;;;1.90;;
22026;SDS011;11177;50.966;10.070;2023-07-30T07:02:56;5.30;;;2.25;;
22026;SDS011;11177;50.966;10.070;2023-07-30T07:05:23;4.47;;;2.00;;
22026;SDS011;11177;50.966;10.070;2023-07-30T07:07:50;3.80;;;2.15;;
22026;SDS011;11177;50.966;10.070;2023-07-30T07:10:17;4.40;;;1.50;;
22026;SDS011;11177;50.966;10.070;2023-07-30T07:12:44;2.22;;;1.70;;
22026;SDS011;11177;50.966;10.070;2023-07-30T07:15:11;2.92;;;1.70;;
22026;SDS011;11177;50.966;10.070;2023-07-30T07:17:38;4.60;;;1.70;;
22026;SDS011;11177;50.966;10.070;2023-07-30T07:20:05;3.08;;;1.70;;
22026;SDS011;11177;50.966;10.070;2023-07-30T07:22:33;1.63;;;1.50;;
22026;SDS011;11177;50.966;10.070;2023-07-30T07:25:00;3.72;;;1.60;;
22026;SDS011;11177;50.966;10.070;2023-07-30T07:27:27;2.50;;;1.30;;
22026;SDS011;11177;50.966;10.070;2023-07-30T07:29:54;2.55;;;1.20;;
22026;SDS011;11177;50.966;10.070;2023-07-30T07:32:21;2.05;;;1.50;;
22026;SDS011;11177;50.966;10.070;2023-07-30T07:34:49;2.95;;;1.40;;
22026;SDS011;11177;50.966;10.070;2023-07-30T07:37:16;1.63;;;1.35;;
22026;SDS011;11177;50.966;10.070;2023-07-30T07:39:45;4.00;;;1.50;;
22026;SDS011;11177;50.966;10.070;2023-07-30T07:42:12;1.77;;;1.40;;
22026;SDS011;11177;50.966;10.070;2023-07-30T07:44:39;4.18;;;1.48;;
22026;SDS011;11177;50.966;10.070;2023-07-30T07:47:06;2.15;;;1.42;;
22026;SDS011;11177;50.966;10.070;2023-07-30T07:49:33;1.50;;;1.35;;
22026;SDS011;11177;50.966;10.070;2023-07-30T07:52:00;4.50;;;1.52;;
22026;SDS011;11177;50.966;10.070;2023-07-30T07:54:26;2.97;;;1.60;;
22026;SDS011;11177;50.966;10.070;2023-07-30T07:56:53;1.63;;;1.48;;
22026;SDS011;11177;50.966;10.070;2023-07-30T07:59:20;2.20;;;1.60;;
22026;SDS011;11177;50.966;10.070;2023-07-30T08:01:47;3.40;;;1.60;;
22026;SDS011;11177;50.966;10.070;2023-07-30T08:04:14;5.22;;;1.60;;
22026;SDS011;11177;50.966;10.070;2023-07-30T08:06:41;4.15;;;1.60;;
22026;SDS011;11177;50.966;10.070;2023-07-30T08:09:08;3.20;;;1.80;;
22026;SDS011;11177;50.966;10.070;2023-07-30T08:11:36;3.47;;;1.70;;
22026;SDS011;11177;50.966;10.070;2023-07-30T08:14:03;2.03;;;1.55;;
22026;SDS011;11177;50.966;10.070;2023-07-30T08:16:30;4.18;;;1.75;;
22026;SDS011;11177;50.966;10.070;2023-07-30T08:18:57;4.38;;;1.65;;
22026;SDS011;11177;50.966;10.070;2023-07-30T08:21:24;3.42;;;1.80;;
22026;SDS011;11177;50.966;10.070;2023-07-30T08:23:51;3.97;;;1.60;;
22026;SDS011;11177;50.966;10.070;2023-07-30T08:26:18;5.63;;;1.80;;
22026;SDS011;11177;50.966;10.070;2023-07-30T08:28:45;5.65;;;1.50;;
22026;SDS011;11177;50.966;10.070;2023-07-30T08:31:12;4.15;;;1.60;;
22026;SDS011;11177;50.966;10.070;2023-07-30T08:33:39;3.47;;;1.52;;
22026;SDS011;11177;50.966;10.070;2023-07-30T08:36:06;2.50;;;1.60;;
22026;SDS011;11177;50.966;10.070;2023-07-30T08:38:32;2.85;;;1.60;;
22026;SDS011;11177;50.966;10.070;2023-07-30T08:41:00;2.72;;;1.40;;
22026;SDS011;11177;50.966;10.070;2023-07-30T08:43:27;3.70;;;1.67;;
22026;SDS011;11177;50.966;10.070;2023-07-30T08:45:53;2.25;;;1.48;;
22026;SDS011;11177;50.966;10.070;2023-07-30T08:48:21;4.75;;;1.45;;
22026;SDS011;11177;50.966;10.070;2023-07-30T08:50:48;2.67;;;1.33;;
22026;SDS011;11177;50.966;10.070;2023-07-30T08:53:15;2.42;;;1.35;;
22026;SDS011;11177;50.966;10.070;2023-07-30T08:55:43;2.97;;;1.33;;
22026;SDS011;11177;50.966;10.070;2023-07-30T08:58:10;4.75;;;1.40;;
22026;SDS011;11177;50.966;10.070;2023-07-30T09:00:38;2.28;;;1.33;;
22026;SDS011;11177;50.966;10.070;2023-07-30T09:03:07;2.70;;;1.67;;
22026;SDS011;11177;50.966;10.070;2023-07-30T09:05:35;3.42;;;1.42;;
22026;SDS011;11177;50.966;10.070;2023-07-30T09:08:02;2.67;;;1.45;;
22026;SDS011;11177;50.966;10.070;2023-07-30T09:10:28;6.10;;;1.35;;
22026;SDS011;11177;50.966;10.070;2023-07-30T09:12:56;4.68;;;1.73;;
22026;SDS011;11177;50.966;10.070;2023-07-30T09:15:35;4.18;;;1.40;;
22026;SDS011;11177;50.966;10.070;2023-07-30T09:18:05;4.03;;;1.30;;
22026;SDS011;11177;50.966;10.070;2023-07-30T09:20:39;3.28;;;1.48;;
22026;SDS011;11177;50.966;10.070;2023-07-30T09:23:07;4.68;;;1.67;;
22026;SDS011;11177;50.966;10.070;2023-07-30T09:25:35;3.40;;;1.63;;
22026;SDS011;11177;50.966;10.070;2023-07-30T09:28:03;3.42;;;1.50;;
22026;SDS011;11177;50.966;10.070;2023-07-30T09:30:31;2.88;;;1.45;;
22026;SDS011;11177;50.966;10.070;2023-07-30T09:32:59;3.55;;;1.45;;
22026;SDS011;11177;50.966;10.070;2023-07-30T09:35:26;3.97;;;1.50;;
22026;SDS011;11177;50.966;10.070;2023-07-30T09:37:57;2.75;;;1.48;;
22026;SDS011;11177;50.966;10.070;2023-07-30T09:40:35;3.45;;;1.50;;
22026;SDS011;11177;50.966;10.070;2023-07-30T09:43:03;3.45;;;1.52;;
22026;SDS011;11177;50.966;10.070;2023-07-30T09:45:35;4.30;;;1.55;;
22026;SDS011;11177;50.966;10.070;2023-07-30T09:48:03;3.40;;;1.42;;
22026;SDS011;11177;50.966;10.070;2023-07-30T09:50:33;2.90;;;1.38;;
22026;SDS011;11177;50.966;10.070;2023-07-30T09:53:03;2.55;;;1.58;;
22026;SDS011;11177;50.966;10.070;2023-07-30T09:55:30;2.33;;;1.48;;
22026;SDS011;11177;50.966;10.070;2023-07-30T09:57:57;2.03;;;1.40;;
22026;SDS011;11177;50.966;10.070;2023-07-30T10:00:24;2.17;;;1.48;;
22026;SDS011;11177;50.966;10.070;2023-07-30T10:02:51;3.78;;;1.52;;
22026;SDS011;11177;50.966;10.070;2023-07-30T10:05:19;3.83;;;1.52;;
22026;SDS011;11177;50.966;10.070;2023-07-30T10:07:49;1.92;;;1.30;;
22026;SDS011;11177;50.966;10.070;2023-07-30T10:10:18;2.72;;;1.30;;
22026;SDS011;11177;50.966;10.070;2023-07-30T10:12:46;2.25;;;1.40;;
22026;SDS011;11177;50.966;10.070;2023-07-30T10:15:14;2.72;;;1.40;;
22026;SDS011;11177;50.966;10.070;2023-07-30T10:17:45;2.08;;;1.30;;
22026;SDS011;11177;50.966;10.070;2023-07-30T10:20:22;3.22;;;1.67;;
22026;SDS011;11177;50.966;10.070;2023-07-30T10:22:53;3.50;;;1.48;;
22026;SDS011;11177;50.966;10.070;2023-07-30T10:25:22;5.85;;;1.70;;
22026;SDS011;11177;50.966;10.070;2023-07-30T10:27:54;2.53;;;1.58;;
22026;SDS011;11177;50.966;10.070;2023-07-30T10:30:20;2.58;;;1.35;;
22026;SDS011;11177;50.966;10.070;2023-07-30T10:33:01;3.95;;;1.77;;
22026;SDS011;11177;50.966;10.070;2023-07-30T10:35:36;3.90;;;1.60;;
22026;SDS011;11177;50.966;10.070;2023-07-30T10:43:46;2.88;;;1.52;;
22026;SDS011;11177;50.966;10.070;2023-07-30T10:46:15;3.17;;;1.50;;
22026;SDS011;11177;50.966;10.070;2023-07-30T10:48:44;2.33;;;1.50;;
22026;SDS011;11177;50.966;10.070;2023-07-30T10:51:13;2.60;;;1.33;;
22026;SDS011;11177;50.966;10.070;2023-07-30T10:53:42;2.17;;;1.30;;
22026;SDS011;11177;50.966;10.070;2023-07-30T10:56:09;3.20;;;1.40;;
22026;SDS011;11177;50.966;10.070;2023-07-30T10:58:37;2.20;;;1.35;;
22026;SDS011;11177;50.966;10.070;2023-07-30T11:01:04;1.58;;;1.20;;
22026;SDS011;11177;50.966;10.070;2023-07-30T11:03:33;3.45;;;1.30;;
22026;SDS011;11177;50.966;10.070;2023-07-30T11:06:01;2.45;;;1.40;;
22026;SDS011;11177;50.966;10.070;2023-07-30T11:08:47;1.45;;;1.20;;
22026;SDS011;11177;50.966;10.070;2023-07-30T11:11:13;4.18;;;1.58;;
22026;SDS011;11177;50.966;10.070;2023-07-30T11:13:41;1.90;;;1.38;;
22026;SDS011;11177;50.966;10.070;2023-07-30T11:16:09;2.10;;;1.30;;
22026;SDS011;11177;50.966;10.070;2023-07-30T11:18:37;3.40;;;1.50;;
22026;SDS011;11177;50.966;10.070;2023-07-30T11:21:08;1.58;;;1.40;;
22026;SDS011;11177;50.966;10.070;2023-07-30T11:23:37;4.07;;;1.60;;
22026;SDS011;11177;50.966;10.070;2023-07-30T11:26:05;1.85;;;1.48;;
22026;SDS011;11177;50.966;10.070;2023-07-30T11:28:36;2.85;;;1.55;;
22026;SDS011;11177;50.966;10.070;2023-07-30T11:33:53;2.20;;;1.20;;
22026;SDS011;11177;50.966;10.070;2023-07-30T11:36:21;2.92;;;1.60;;
22026;SDS011;11177;50.966;10.070;2023-07-30T11:38:49;1.63;;;1.33;;
22026;SDS011;11177;50.966;10.070;2023-07-30T11:41:16;4.03;;;1.42;;
22026;SDS011;11177;50.966;10.070;2023-07-30T11:43:44;3.08;;;1.40;;
22026;SDS011;11177;50.966;10.070;2023-07-30T11:46:15;3.03;;;1.83;;
22026;SDS011;11177;50.966;10.070;2023-07-30T11:48:43;1.25;;;1.15;;
22026;SDS011;11177;50.966;10.070;2023-07-30T11:51:25;2.17;;;1.40;;
22026;SDS011;11177;50.966;10.070;2023-07-30T11:53:54;7.75;;;1.50;;
22026;SDS011;11177;50.966;10.070;2023-07-30T11:56:23;6.53;;;1.60;;
22026;SDS011;11177;50.966;10.070;2023-07-30T11:58:54;5.78;;;1.42;;
22026;SDS011;11177;50.966;10.070;2023-07-30T12:01:23;3.00;;;1.02;;
22026;SDS011;11177;50.966;10.070;2023-07-30T12:03:58;2.15;;;0.98;;
22026;SDS011;11177;50.966;10.070;2023-07-30T12:06:44;2.08;;;0.90;;
22026;SDS011;11177;50.966;10.070;2023-07-30T12:09:15;2.65;;;0.70;;
22026;SDS011;11177;50.966;10.070;2023-07-30T12:11:52;2.25;;;0.90;;
22026;SDS011;11177;50.966;10.070;2023-07-30T12:17:09;0.63;;;0.60;;
22026;SDS011;11177;50.966;10.070;2023-07-30T12:19:37;1.10;;;0.60;;
22026;SDS011;11177;50.966;10.070;2023-07-30T12:22:05;1.05;;;0.60;;
22026;SDS011;11177;50.966;10.070;2023-07-30T12:24:32;0.95;;;0.70;;
22026;SDS011;11177;50.966;10.070;2023-07-30T12:26:59;0.80;;;0.60;;
22026;SDS011;11177;50.966;10.070;2023-07-30T12:29:27;1.63;;;0.55;;
22026;SDS011;11177;50.966;10.070;2023-07-30T12:31:55;0.75;;;0.60;;
22026;SDS011;11177;50.966;10.070;2023-07-30T12:34:29;1.00;;;0.85;;
22026;SDS011;11177;50.966;10.070;2023-07-30T12:36:56;2.30;;;1.70;;
22026;SDS011;11177;50.966;10.070;2023-07-30T12:39:28;2.83;;;2.40;;
22026;SDS011;11177;50.966;10.070;2023-07-30T12:41:55;2.65;;;2.45;;
22026;SDS011;11177;50.966;10.070;2023-07-30T12:44:22;5.90;;;3.53;;
22026;SDS011;11177;50.966;10.070;2023-07-30T12:46:49;3.83;;;3.38;;
22026;SDS011;11177;50.966;10.070;2023-07-30T12:49:17;4.70;;;3.42;;
22026;SDS011;11177;50.966;10.070;2023-07-30T12:51:45;5.82;;;4.05;;
22026;SDS011;11177;50.966;10.070;2023-07-30T12:54:14;5.50;;;4.10;;
22026;SDS011;11177;50.966;10.070;2023-07-30T12:56:41;5.50;;;4.20;;
22026;SDS011;11177;50.966;10.070;2023-07-30T12:59:08;5.45;;;3.90;;
22026;SDS011;11177;50.966;10.070;2023-07-30T13:01:35;5.68;;;4.13;;
22026;SDS011;11177;50.966;10.070;2023-07-30T13:04:03;4.65;;;3.72;;
22026;SDS011;11177;50.966;10.070;2023-07-30T13:06:35;5.25;;;3.67;;
22026;SDS011;11177;50.966;10.070;2023-07-30T13:09:02;4.03;;;2.75;;
22026;SDS011;11177;50.966;10.070;2023-07-30T13:11:33;2.53;;;2.10;;
22026;SDS011;11177;50.966;10.070;2023-07-30T13:14:01;4.47;;;2.30;;
22026;SDS011;11177;50.966;10.070;2023-07-30T13:16:31;2.58;;;1.98;;
22026;SDS011;11177;50.966;10.070;2023-07-30T13:18:59;2.83;;;2.20;;
22026;SDS011;11177;50.966;10.070;2023-07-30T13:21:30;3.85;;;2.00;;
22026;SDS011;11177;50.966;10.070;2023-07-30T13:23:57;5.18;;;2.17;;
22026;SDS011;11177;50.966;10.070;2023-07-30T13:26:24;4.45;;;2.20;;
22026;SDS011;11177;50.966;10.070;2023-07-30T13:28:51;14.52;;;2.30;;
22026;SDS011;11177;50.966;10.070;2023-07-30T13:31:19;3.33;;;2.63;;
22026;SDS011;11177;50.966;10.070;2023-07-30T13:33:46;5.07;;;2.63;;
22026;SDS011;11177;50.966;10.070;2023-07-30T13:36:14;4.50;;;2.60;;
22026;SDS011;11177;50.966;10.070;2023-07-30T13:38:41;2.90;;;2.42;;
22026;SDS011;11177;50.966;10.070;2023-07-30T13:41:10;3.30;;;2.28;;
22026;SDS011;11177;50.966;10.070;2023-07-30T13:43:37;6.25;;;2.80;;
22026;SDS011;11177;50.966;10.070;2023-07-30T13:46:05;3.92;;;2.38;;
22026;SDS011;11177;50.966;10.070;2023-07-30T13:48:32;3.13;;;2.25;;
22026;SDS011;11177;50.966;10.070;2023-07-30T13:51:00;5.38;;;2.50;;
22026;SDS011;11177;50.966;10.070;2023-07-30T13:53:27;4.22;;;2.33;;
22026;SDS011;11177;50.966;10.070;2023-07-30T13:55:55;5.50;;;2.40;;
22026;SDS011;11177;50.966;10.070;2023-07-30T13:58:22;5.45;;;2.10;;
22026;SDS011;11177;50.966;10.070;2023-07-30T14:00:50;3.15;;;2.10;;
22026;SDS011;11177;50.966;10.070;2023-07-30T14:03:20;4.78;;;2.15;;
22026;SDS011;11177;50.966;10.070;2023-07-30T14:05:47;3.65;;;1.85;;
22026;SDS011;11177;50.966;10.070;2023-07-30T14:08:14;5.13;;;2.00;;
22026;SDS011;11177;50.966;10.070;2023-07-30T14:10:42;3.35;;;2.00;;
22026;SDS011;11177;50.966;10.070;2023-07-30T14:13:09;5.32;;;1.80;;
22026;SDS011;11177;50.966;10.070;2023-07-30T14:15:37;4.28;;;2.20;;
22026;SDS011;11177;50.966;10.070;2023-07-30T14:18:04;3.35;;;1.80;;
22026;SDS011;11177;50.966;10.070;2023-07-30T14:20:32;1.60;;;1.50;;
22026;SDS011;11177;50.966;10.070;2023-07-30T14:22:59;3.38;;;1.80;;
22026;SDS011;11177;50.966;10.070;2023-07-30T14:25:30;2.75;;;1.60;;
22026;SDS011;11177;50.966;10.070;2023-07-30T14:27:57;5.70;;;1.60;;
22026;SDS011;11177;50.966;10.070;2023-07-30T14:30:24;4.05;;;1.88;;
22026;SDS011;11177;50.966;10.070;2023-07-30T14:32:51;4.05;;;1.50;;
22026;SDS011;11177;50.966;10.070;2023-07-30T14:35:19;5.57;;;1.77;;
22026;SDS011;11177;50.966;10.070;2023-07-30T14:37:48;3.53;;;1.55;;
22026;SDS011;11177;50.966;10.070;2023-07-30T14:40:19;3.08;;;1.40;;
22026;SDS011;11177;50.966;10.070;2023-07-30T14:42:58;2.70;;;1.50;;
22026;SDS011;11177;50.966;10.070;2023-07-30T14:45:25;4.22;;;1.65;;
22026;SDS011;11177;50.966;10.070;2023-07-30T14:47:56;2.55;;;1.50;;